createdAt,value
2023-01-11T00:01:50.129Z,7.20
2023-01-11T00:04:18.489Z,7.20
2023-01-11T00:06:46.915Z,7.20
2023-01-11T00:09:15.923Z,7.20
2023-01-11T00:11:43.792Z,7.20
2023-01-11T00:14:13.239Z,7.20
2023-01-11T00:16:41.030Z,7.20
2023-01-11T00:19:09.021Z,7.20
2023-01-11T00:21:36.795Z,7.20
2023-01-11T00:24:05.014Z,7.20
2023-01-11T00:26:32.864Z,7.20
2023-01-11T00:29:00.707Z,7.20
2023-01-11T00:31:29.926Z,7.20
2023-01-11T00:33:58.774Z,7.20
2023-01-11T00:36:26.622Z,7.20
2023-01-11T00:38:55.456Z,7.20
2023-01-11T00:41:56.937Z,7.20
2023-01-11T00:44:42.162Z,7.20
2023-01-11T00:47:37.740Z,7.30
2023-01-11T00:50:06.158Z,7.20
2023-01-11T00:52:34.024Z,7.20
2023-01-11T00:55:01.856Z,7.20
2023-01-11T00:57:29.634Z,7.20
2023-01-11T00:59:57.472Z,7.30
2023-01-11T01:02:26.752Z,7.20
2023-01-11T01:04:54.614Z,7.30
2023-01-11T01:07:22.489Z,7.30
2023-01-11T01:09:50.313Z,7.30
2023-01-11T01:12:39.243Z,7.30
2023-01-11T01:15:06.936Z,7.30
2023-01-11T01:17:36.130Z,7.30
2023-01-11T01:20:04.589Z,7.30
2023-01-11T01:22:32.499Z,7.30
2023-01-11T01:25:00.396Z,7.30
2023-01-11T01:27:28.268Z,7.30
2023-01-11T01:29:56.143Z,7.30
2023-01-11T01:32:24.033Z,7.30
2023-01-11T01:34:53.290Z,7.30
2023-01-11T01:37:21.087Z,7.30
2023-01-11T01:39:48.929Z,7.30
2023-01-11T01:42:19.541Z,7.30
2023-01-11T01:45:04.342Z,7.30
2023-01-11T01:47:42.261Z,7.30
2023-01-11T01:50:16.238Z,7.30
2023-01-11T01:52:47.645Z,7.30
2023-01-11T01:55:23.194Z,7.30
2023-01-11T01:57:52.695Z,7.30
2023-01-11T02:00:21.394Z,7.30
2023-01-11T02:02:50.063Z,7.40
2023-01-11T02:05:19.771Z,7.40
2023-01-11T02:07:48.262Z,7.40
2023-01-11T02:10:19.174Z,7.40
2023-01-11T02:12:52.657Z,7.40
2023-01-11T02:15:23.086Z,7.40
2023-01-11T02:17:51.224Z,7.40
2023-01-11T02:20:47.033Z,7.40
2023-01-11T02:24:01.641Z,7.40
2023-01-11T02:27:12.137Z,7.40
2023-01-11T02:29:50.802Z,7.40
2023-01-11T02:32:27.901Z,7.40
2023-01-11T02:35:07.960Z,7.40
2023-01-11T02:37:42.888Z,7.40
2023-01-11T02:40:18.088Z,7.50
2023-01-11T02:43:09.447Z,7.50
2023-01-11T02:45:42.059Z,7.50
2023-01-11T02:48:18.988Z,7.50
2023-01-11T02:50:54.765Z,7.50
2023-01-11T02:53:27.111Z,7.50
2023-01-11T02:55:59.427Z,7.60
2023-01-11T02:58:32.487Z,7.60
2023-01-11T03:01:04.809Z,7.60
2023-01-11T03:03:33.762Z,7.70
2023-01-11T03:06:06.409Z,7.70
2023-01-11T03:09:22.127Z,7.80
2023-01-11T03:12:22.863Z,7.80
2023-01-11T03:15:04.903Z,7.80
2023-01-11T03:17:45.147Z,7.80
2023-01-11T03:20:20.519Z,7.90
2023-01-11T03:23:03.404Z,7.90
2023-01-11T03:25:40.521Z,7.90
2023-01-11T03:28:16.076Z,7.90
2023-01-11T03:30:50.354Z,8.00
2023-01-11T03:33:28.365Z,8.00
2023-01-11T03:36:01.910Z,8.00
2023-01-11T03:38:37.538Z,8.00
2023-01-11T03:41:09.156Z,8.00
2023-01-11T03:43:40.051Z,8.10
2023-01-11T03:46:11.113Z,8.10
2023-01-11T03:48:45.692Z,8.10
2023-01-11T03:51:16.271Z,8.10
2023-01-11T03:53:47.071Z,8.10
2023-01-11T03:56:19.533Z,8.10
2023-01-11T03:58:47.474Z,8.10
2023-01-11T04:01:15.967Z,8.20
2023-01-11T04:03:45.235Z,8.20
2023-01-11T04:06:13.746Z,8.20
2023-01-11T04:08:41.550Z,8.20
2023-01-11T04:11:09.411Z,8.20
2023-01-11T04:13:37.312Z,8.20
2023-01-11T04:16:05.415Z,8.20
2023-01-11T04:18:33.208Z,8.30
2023-01-11T04:21:02.476Z,8.30
2023-01-11T04:23:30.860Z,8.30
2023-01-11T04:25:58.633Z,8.30
2023-01-11T04:28:26.463Z,8.30
2023-01-11T04:30:54.869Z,8.30
2023-01-11T04:33:22.695Z,8.40
2023-01-11T04:35:50.847Z,8.40
2023-01-11T04:38:20.159Z,8.40
2023-01-11T04:40:49.207Z,8.40
2023-01-11T04:43:16.214Z,8.40
2023-01-11T04:45:44.118Z,8.40
2023-01-11T04:48:11.998Z,8.50
2023-01-11T04:50:43.018Z,8.50
2023-01-11T04:53:10.907Z,8.50
2023-01-11T04:55:40.271Z,8.50
2023-01-11T04:58:08.319Z,8.50
2023-01-11T05:00:36.190Z,8.50
2023-01-11T05:03:04.076Z,8.60
2023-01-11T05:05:31.951Z,8.60
2023-01-11T05:07:59.841Z,8.60
2023-01-11T05:10:27.733Z,8.60
2023-01-11T05:12:56.956Z,8.70
2023-01-11T05:15:24.880Z,8.70
2023-01-11T05:17:52.746Z,8.70
2023-01-11T05:20:20.609Z,8.70
2023-01-11T05:22:49.264Z,8.70
2023-01-11T05:25:17.205Z,8.70
2023-01-11T05:27:45.031Z,8.70
2023-01-11T05:30:15.493Z,8.70
2023-01-11T05:32:43.286Z,8.80
2023-01-11T05:35:11.407Z,8.80
2023-01-11T05:37:39.319Z,8.80
2023-01-11T05:40:08.619Z,8.80
2023-01-11T05:42:36.390Z,8.90
2023-01-11T05:45:22.094Z,8.90
2023-01-11T05:47:54.081Z,8.90
2023-01-11T05:50:22.164Z,8.90
2023-01-11T05:52:51.820Z,8.90
2023-01-11T05:55:19.799Z,8.90
2023-01-11T05:57:47.643Z,8.90
2023-01-11T06:00:16.528Z,8.90
2023-01-11T06:02:44.496Z,9.00
2023-01-11T06:05:13.855Z,9.00
2023-01-11T06:07:41.729Z,9.00
2023-01-11T06:10:10.886Z,9.00
2023-01-11T06:12:38.831Z,9.00
2023-01-11T06:15:07.997Z,9.00
2023-01-11T06:17:35.923Z,9.00
2023-01-11T06:20:03.945Z,9.00
2023-01-11T06:22:33.184Z,9.10
2023-01-11T06:25:01.023Z,9.10
2023-01-11T06:27:28.855Z,9.10
2023-01-11T06:29:56.683Z,9.10
2023-01-11T06:32:24.501Z,9.20
2023-01-11T06:34:52.356Z,9.20
2023-01-11T06:37:20.175Z,9.20
2023-01-11T06:39:49.327Z,9.20
2023-01-11T06:42:17.125Z,9.20
2023-01-11T06:44:44.957Z,9.20
2023-01-11T06:47:12.830Z,9.20
2023-01-11T06:49:40.664Z,9.20
2023-01-11T06:52:08.491Z,9.20
2023-01-11T06:54:36.354Z,9.30
2023-01-11T06:57:05.495Z,9.30
2023-01-11T06:59:33.318Z,9.30
2023-01-11T07:02:01.147Z,9.30
2023-01-11T07:04:28.956Z,9.30
2023-01-11T07:06:56.767Z,9.30
2023-01-11T07:09:24.660Z,9.40
2023-01-11T07:11:52.490Z,9.40
2023-01-11T07:14:22.152Z,9.40
2023-01-11T07:16:49.986Z,9.40
2023-01-11T07:19:18.484Z,9.40
2023-01-11T07:21:46.350Z,9.40
2023-01-11T07:24:14.583Z,9.40
2023-01-11T07:26:43.211Z,9.40
2023-01-11T07:29:11.839Z,9.40
2023-01-11T07:31:40.993Z,9.40
2023-01-11T07:34:09.451Z,9.40
2023-01-11T07:36:39.530Z,9.40
2023-01-11T07:39:07.938Z,9.40
2023-01-11T07:41:53.310Z,9.40
2023-01-11T07:44:21.150Z,9.40
2023-01-11T07:46:50.493Z,9.50
2023-01-11T07:49:18.327Z,9.40
2023-01-11T07:51:46.134Z,9.50
2023-01-11T07:54:14.019Z,9.50
2023-01-11T07:56:41.776Z,9.50
2023-01-11T07:59:10.174Z,9.50
2023-01-11T08:01:38.048Z,9.50
2023-01-11T08:04:08.492Z,9.50
2023-01-11T08:06:36.273Z,9.50
2023-01-11T08:09:04.200Z,9.50
2023-01-11T08:11:49.739Z,9.50
2023-01-11T08:14:35.392Z,9.50
2023-01-11T08:17:03.414Z,9.60
2023-01-11T08:19:32.583Z,9.50
2023-01-11T08:22:00.385Z,9.60
2023-01-11T08:24:28.302Z,9.60
2023-01-11T08:26:56.445Z,9.60
2023-01-11T08:29:25.271Z,9.70
2023-01-11T08:31:53.485Z,9.70
2023-01-11T08:34:21.494Z,9.70
2023-01-11T08:36:50.629Z,9.70
2023-01-11T08:39:18.428Z,9.70
2023-01-11T08:41:46.253Z,9.70
2023-01-11T08:44:14.972Z,9.70
2023-01-11T08:46:43.014Z,9.80
2023-01-11T08:49:12.347Z,9.80
2023-01-11T08:51:40.642Z,9.80
2023-01-11T08:54:12.866Z,9.80
2023-01-11T08:56:41.102Z,9.80
2023-01-11T08:59:10.709Z,9.80
2023-01-11T09:01:38.687Z,9.80
2023-01-11T09:04:15.771Z,9.90
2023-01-11T09:06:51.184Z,9.90
2023-01-11T09:09:20.487Z,9.90
2023-01-11T09:12:05.525Z,9.90
2023-01-11T09:14:34.273Z,9.90
2023-01-11T09:17:02.096Z,9.90
2023-01-11T09:19:29.923Z,9.90
2023-01-11T09:22:00.441Z,9.90
2023-01-11T09:24:29.747Z,9.90
2023-01-11T09:26:59.077Z,10.00
2023-01-11T09:29:27.391Z,10.00
2023-01-11T09:31:55.342Z,10.00
2023-01-11T09:34:25.304Z,10.00
2023-01-11T09:36:53.204Z,10.00
2023-01-11T09:39:24.378Z,10.00
2023-01-11T09:42:07.473Z,10.00
2023-01-11T09:44:37.660Z,10.00
2023-01-11T09:47:17.532Z,10.00
2023-01-11T09:49:50.850Z,10.00
2023-01-11T09:52:28.692Z,10.00
2023-01-11T09:54:58.373Z,10.00
2023-01-11T09:57:43.926Z,10.00
2023-01-11T10:00:19.684Z,10.00
2023-01-11T10:03:01.474Z,10.00
2023-01-11T10:05:42.623Z,10.00
2023-01-11T10:18:32.463Z,10.00
2023-01-11T10:18:42.944Z,10.00
2023-01-11T10:20:35.452Z,10.00
2023-01-11T10:23:10.127Z,10.00
2023-01-11T10:25:44.539Z,10.10
2023-01-11T10:28:22.918Z,10.00
2023-01-11T10:31:08.064Z,10.10
2023-01-11T10:34:05.861Z,10.10
2023-01-11T10:36:55.478Z,10.00
2023-01-11T10:39:50.579Z,10.10
2023-01-11T10:42:21.631Z,10.10
2023-01-11T10:45:00.033Z,10.00
2023-01-11T10:47:39.205Z,10.00
2023-01-11T10:50:20.210Z,10.10
2023-01-11T10:52:55.845Z,10.10
2023-01-11T10:55:30.391Z,10.10
2023-01-11T10:58:08.465Z,10.10
2023-01-11T11:00:44.441Z,10.10
2023-01-11T11:03:34.960Z,10.10
2023-01-11T11:06:07.952Z,10.10
2023-01-11T11:08:43.111Z,10.10
2023-01-11T11:11:15.634Z,10.10
2023-01-11T11:13:53.527Z,10.10
2023-01-11T11:16:38.215Z,10.10
2023-01-11T11:19:13.193Z,10.10
2023-01-11T11:21:43.697Z,10.10
2023-01-11T11:24:18.349Z,10.10
2023-01-11T11:26:50.423Z,10.10
2023-01-11T11:29:22.757Z,10.10
2023-01-11T11:31:51.723Z,10.10
2023-01-11T11:34:27.184Z,10.10
2023-01-11T11:36:58.890Z,10.10
2023-01-11T11:39:28.440Z,10.10
2023-01-11T11:41:58.249Z,10.10
2023-01-11T11:44:28.158Z,10.10
2023-01-11T11:47:00.324Z,10.10
2023-01-11T11:49:30.689Z,10.10
2023-01-11T11:52:00.674Z,10.10
2023-01-11T11:54:31.517Z,10.10
2023-01-11T11:57:01.318Z,10.10
2023-01-11T11:59:32.656Z,10.10
2023-01-11T12:02:03.265Z,10.10
2023-01-11T12:04:47.015Z,10.10
2023-01-11T12:07:17.009Z,10.10
2023-01-11T12:09:48.663Z,10.10
2023-01-11T12:12:19.643Z,10.10
2023-01-11T12:15:22.040Z,10.10
2023-01-11T12:17:50.259Z,10.10
2023-01-11T12:20:41.042Z,10.10
2023-01-11T12:23:18.287Z,10.10
2023-01-11T12:26:22.537Z,10.10
2023-01-11T12:29:31.414Z,10.00
2023-01-11T12:32:32.814Z,10.00
2023-01-11T12:35:15.719Z,10.00
2023-01-11T12:38:06.655Z,10.00
2023-01-11T12:40:42.716Z,10.00
2023-01-11T12:43:33.027Z,10.10
2023-01-11T12:46:09.482Z,10.10
2023-01-11T12:48:49.635Z,10.10
2023-01-11T12:51:42.936Z,10.10
2023-01-11T12:54:25.679Z,10.10
2023-01-11T12:57:20.599Z,10.10
2023-01-11T13:00:22.754Z,10.10
2023-01-11T13:03:22.496Z,10.10
2023-01-11T13:06:02.779Z,10.10
2023-01-11T13:08:46.104Z,10.10
2023-01-11T13:11:36.053Z,10.10
2023-01-11T13:14:39.814Z,10.10
2023-01-11T13:17:21.038Z,10.10
2023-01-11T13:19:53.509Z,10.10
2023-01-11T13:22:29.185Z,10.10
2023-01-11T13:24:59.448Z,10.10
2023-01-11T13:27:31.732Z,10.10
2023-01-11T13:30:03.102Z,10.10
2023-01-11T13:32:37.523Z,10.10
2023-01-11T13:35:08.097Z,10.10
2023-01-11T13:37:41.405Z,10.10
2023-01-11T13:40:18.761Z,10.10
2023-01-11T13:42:51.370Z,10.10
2023-01-11T13:45:25.576Z,10.10
2023-01-11T13:47:57.337Z,10.10
2023-01-11T13:50:29.316Z,10.10
2023-01-11T13:53:03.960Z,10.10
2023-01-11T13:55:42.837Z,10.10
2023-01-11T13:58:17.416Z,10.10
2023-01-11T14:00:50.984Z,10.10
2023-01-11T14:03:27.875Z,10.10
2023-01-11T14:06:07.238Z,10.20
2023-01-11T14:09:02.532Z,10.20
2023-01-11T14:11:40.037Z,10.20
2023-01-11T14:14:42.186Z,10.20
2023-01-11T14:17:26.856Z,10.20
2023-01-11T14:20:03.702Z,10.20
2023-01-11T14:22:37.942Z,10.20
2023-01-11T14:25:10.165Z,10.20
2023-01-11T14:27:53.639Z,10.20
2023-01-11T14:30:39.629Z,10.20
2023-01-11T14:33:38.401Z,10.20
2023-01-11T14:36:44.077Z,10.20
2023-01-11T14:39:40.479Z,10.20
2023-01-11T14:42:35.623Z,10.20
2023-01-11T14:45:20.870Z,10.20
2023-01-11T14:48:14.420Z,10.20
2023-01-11T14:50:56.182Z,10.20
2023-01-11T14:53:28.657Z,10.20
2023-01-11T14:55:56.635Z,10.20
2023-01-11T14:58:27.452Z,10.20
2023-01-11T15:01:11.696Z,10.20
2023-01-11T15:03:57.706Z,10.20
2023-01-11T15:06:25.832Z,10.20
2023-01-11T15:08:56.013Z,10.20
2023-01-11T15:11:30.887Z,10.20
2023-01-11T15:14:04.853Z,10.20
2023-01-11T15:16:53.173Z,10.20
2023-01-11T15:19:29.119Z,10.20
2023-01-11T15:21:58.476Z,10.20
2023-01-11T15:24:29.737Z,10.20
2023-01-11T15:26:58.362Z,10.20
2023-01-11T15:29:29.260Z,10.20
2023-01-11T15:32:15.213Z,10.20
2023-01-11T15:34:46.656Z,10.20
2023-01-11T15:37:45.530Z,10.10
2023-01-11T15:40:19.133Z,10.10
2023-01-11T15:43:28.828Z,10.10
2023-01-11T15:46:57.027Z,10.10
2023-01-11T15:49:53.379Z,10.00
2023-01-11T15:53:05.891Z,10.00
2023-01-11T15:56:18.562Z,10.00
2023-01-11T15:59:21.942Z,10.00
2023-01-11T16:02:33.547Z,9.90
2023-01-11T16:05:02.760Z,9.90
2023-01-11T16:07:40.873Z,9.90
2023-01-11T16:10:28.699Z,9.90
2023-01-11T16:13:26.239Z,9.90
2023-01-11T16:16:17.762Z,9.90
2023-01-11T16:18:48.387Z,9.90
2023-01-11T16:21:21.304Z,9.90
2023-01-11T16:23:50.476Z,9.90
2023-01-11T16:26:20.944Z,9.80
2023-01-11T16:28:51.722Z,9.80
2023-01-11T16:31:21.324Z,9.90
2023-01-11T16:33:50.117Z,9.80
2023-01-11T16:36:20.974Z,9.80
2023-01-11T16:38:57.629Z,9.80
2023-01-11T16:41:30.030Z,9.80
2023-01-11T16:44:03.318Z,9.80
2023-01-11T16:47:08.247Z,9.80
2023-01-11T16:49:37.943Z,9.80
2023-01-11T16:52:38.687Z,9.80
2023-01-11T16:55:23.311Z,9.70
2023-01-11T16:57:55.216Z,9.80
2023-01-11T17:00:28.884Z,9.80
2023-01-11T17:03:06.709Z,9.80
2023-01-11T17:05:36.034Z,9.70
2023-01-11T17:08:27.130Z,9.70
2023-01-11T17:10:57.511Z,9.70
2023-01-11T17:13:52.991Z,9.70
2023-01-11T17:16:24.482Z,9.70
2023-01-11T17:18:54.441Z,9.70
2023-01-11T17:21:25.701Z,9.70
2023-01-11T17:23:56.011Z,9.60
2023-01-11T17:26:26.098Z,9.60
2023-01-11T17:28:58.182Z,9.60
2023-01-11T17:31:30.467Z,9.60
2023-01-11T17:34:04.524Z,9.60
2023-01-11T17:36:34.850Z,9.60
2023-01-11T17:39:04.249Z,9.60
2023-01-11T17:41:50.302Z,9.60
2023-01-11T17:44:38.147Z,9.60
2023-01-11T17:47:08.863Z,9.50
2023-01-11T17:49:38.467Z,9.50
2023-01-11T17:52:21.123Z,9.50
2023-01-11T17:55:00.152Z,9.50
2023-01-11T17:57:28.085Z,9.50
2023-01-11T18:00:18.499Z,9.50
2023-01-11T18:02:47.272Z,9.50
2023-01-11T18:05:17.508Z,9.50
2023-01-11T18:07:51.654Z,9.50
2023-01-11T18:10:22.093Z,9.40
2023-01-11T18:12:51.674Z,9.40
2023-01-11T18:15:28.716Z,9.40
2023-01-11T18:17:57.739Z,9.40
2023-01-11T18:20:37.878Z,9.40
2023-01-11T18:23:19.757Z,9.40
2023-01-11T18:25:48.258Z,9.30
2023-01-11T18:28:29.284Z,9.30
2023-01-11T18:31:01.834Z,9.30
2023-01-11T18:33:32.401Z,9.20
2023-01-11T18:36:01.767Z,9.20
2023-01-11T18:38:33.162Z,9.20
2023-01-11T18:41:26.367Z,9.20
2023-01-11T18:43:55.039Z,9.20
2023-01-11T18:46:22.955Z,9.20
2023-01-11T18:48:50.944Z,9.10
2023-01-11T18:51:22.599Z,9.10
2023-01-11T18:53:51.997Z,9.10
2023-01-11T18:56:19.908Z,9.10
2023-01-11T18:58:47.780Z,9.10
2023-01-11T19:01:16.050Z,9.00
2023-01-11T19:03:46.134Z,9.10
2023-01-11T19:06:15.035Z,9.00
2023-01-11T19:08:42.881Z,9.00
2023-01-11T19:11:13.867Z,9.00
2023-01-11T19:13:41.798Z,9.00
2023-01-11T19:16:09.951Z,9.00
2023-01-11T19:18:37.894Z,9.00
2023-01-11T19:21:09.194Z,9.00
2023-01-11T19:23:37.061Z,8.90
2023-01-11T19:26:05.190Z,8.90
2023-01-11T19:28:34.511Z,8.90
2023-01-11T19:31:07.309Z,8.90
2023-01-11T19:33:35.265Z,8.90
2023-01-11T19:36:06.591Z,8.90
2023-01-11T19:38:34.701Z,8.80
2023-01-11T19:41:06.229Z,8.90
2023-01-11T19:43:35.933Z,8.80
2023-01-11T19:46:04.250Z,8.80
2023-01-11T19:48:33.036Z,8.80
2023-01-11T19:51:04.437Z,8.80
2023-01-11T19:53:32.961Z,8.80
2023-01-11T19:56:02.054Z,8.70
2023-01-11T19:58:30.309Z,8.70
2023-01-11T20:00:59.617Z,8.70
2023-01-11T20:03:29.223Z,8.70
2023-01-11T20:06:07.625Z,8.70
2023-01-11T20:08:38.387Z,8.70
2023-01-11T20:11:07.750Z,8.70
2023-01-11T20:13:36.043Z,8.60
2023-01-11T20:16:08.117Z,8.60
2023-01-11T20:18:36.397Z,8.60
2023-01-11T20:21:05.008Z,8.60
2023-01-11T20:23:34.013Z,8.60
2023-01-11T20:26:03.152Z,8.60
2023-01-11T20:28:31.702Z,8.60
2023-01-11T20:31:02.155Z,8.60
2023-01-11T20:33:31.623Z,8.60
2023-01-11T20:35:59.502Z,8.50
2023-01-11T20:38:27.341Z,8.50
2023-01-11T20:40:55.143Z,8.50
2023-01-11T20:43:22.960Z,8.50
2023-01-11T20:45:57.141Z,8.50
2023-01-11T20:48:25.013Z,8.50
2023-01-11T20:50:54.271Z,8.50
2023-01-11T20:53:22.457Z,8.50
2023-01-11T20:55:50.467Z,8.50
2023-01-11T20:58:18.321Z,8.40
2023-01-11T21:00:46.236Z,8.40
2023-01-11T21:03:14.058Z,8.40
2023-01-11T21:05:43.892Z,8.40
2023-01-11T21:08:13.068Z,8.40
2023-01-11T21:10:40.974Z,8.40
2023-01-11T21:13:11.522Z,8.40
2023-01-11T21:15:39.940Z,8.40
2023-01-11T21:18:07.915Z,8.40
2023-01-11T21:20:36.025Z,8.30
2023-01-11T21:23:03.934Z,8.40
2023-01-11T21:25:34.872Z,8.30
2023-01-11T21:28:03.904Z,8.30
2023-01-11T21:30:31.820Z,8.30
2023-01-11T21:32:59.716Z,8.30
2023-01-11T21:35:28.114Z,8.30
2023-01-11T21:37:55.996Z,8.30
2023-01-11T21:40:23.937Z,8.30
2023-01-11T21:42:53.124Z,8.30
2023-01-11T21:45:21.003Z,8.30
2023-01-11T21:47:48.965Z,8.20
2023-01-11T21:50:17.454Z,8.20
2023-01-11T21:52:45.285Z,8.20
2023-01-11T21:55:13.199Z,8.20
2023-01-11T21:57:41.050Z,8.20
2023-01-11T22:00:14.032Z,8.20
2023-01-11T22:02:42.019Z,8.20
2023-01-11T22:05:10.736Z,8.20
2023-01-11T22:07:40.655Z,8.20
2023-01-11T22:10:09.398Z,8.20
2023-01-11T22:12:37.240Z,8.20
2023-01-11T22:15:05.648Z,8.20
2023-01-11T22:17:35.074Z,8.10
2023-01-11T22:20:02.980Z,8.10
2023-01-11T22:22:30.852Z,8.10
2023-01-11T22:24:58.813Z,8.10
2023-01-11T22:27:26.685Z,8.10
2023-01-11T22:29:54.860Z,8.10
2023-01-11T22:32:22.746Z,8.10
2023-01-11T22:34:51.922Z,8.10
2023-01-11T22:37:20.048Z,8.10
2023-01-11T22:39:47.848Z,8.00
2023-01-11T22:42:15.692Z,8.00
2023-01-11T22:44:43.538Z,8.10
2023-01-11T22:47:11.368Z,8.00
2023-01-11T22:49:39.211Z,8.00
2023-01-11T22:52:08.372Z,8.00
2023-01-11T22:54:36.255Z,8.00
2023-01-11T22:57:04.230Z,8.00
2023-01-11T22:59:32.122Z,8.00
2023-01-11T23:02:00.003Z,8.00
2023-01-11T23:04:27.864Z,8.00
2023-01-11T23:06:57.227Z,8.00
2023-01-11T23:09:27.087Z,8.00
2023-01-11T23:12:12.593Z,8.00
2023-01-11T23:14:40.411Z,8.00
2023-01-11T23:17:08.253Z,8.00
2023-01-11T23:19:37.206Z,7.90
2023-01-11T23:22:05.701Z,8.00
2023-01-11T23:24:35.955Z,8.00
2023-01-11T23:27:03.793Z,8.00
2023-01-11T23:29:31.710Z,8.00
2023-01-11T23:31:59.748Z,8.00
2023-01-11T23:34:27.666Z,8.00
2023-01-11T23:36:55.665Z,8.00
2023-01-11T23:39:24.567Z,8.00
2023-01-11T23:42:11.156Z,8.00
2023-01-11T23:44:38.983Z,8.00
2023-01-11T23:47:20.865Z,8.00
2023-01-11T23:49:49.477Z,8.00
2023-01-11T23:52:17.415Z,8.00
2023-01-11T23:54:46.053Z,8.00
2023-01-11T23:57:16.461Z,8.00
2023-01-11T23:59:44.842Z,8.00
